sensor_id;sensor_type;location;lat;lon;timestamp;pressure;altitude;pressure_sealevel;temperature;humidity
55540;BME280;41384;51.418;7.286;2023-05-23T00:00:59;99914.00;;;16.56;100.00
55540;BME280;41384;51.418;7.286;2023-05-23T00:03:25;99911.72;;;16.65;100.00
55540;BME280;41384;51.418;7.286;2023-05-23T00:05:50;99910.00;;;16.76;100.00
55540;BME280;41384;51.418;7.286;2023-05-23T00:08:16;99909.47;;;16.57;100.00
55540;BME280;41384;51.418;7.286;2023-05-23T00:10:43;99921.66;;;16.53;100.00
55540;BME280;41384;51.418;7.286;2023-05-23T00:13:08;99909.47;;;16.23;100.00
55540;BME280;41384;51.418;7.286;2023-05-23T00:15:34;99898.41;;;16.31;100.00
55540;BME280;41384;51.418;7.286;2023-05-23T00:18:01;99905.03;;;16.45;100.00
55540;BME280;41384;51.418;7.286;2023-05-23T00:20:27;99913.19;;;16.39;100.00
55540;BME280;41384;51.418;7.286;2023-05-23T00:22:53;99907.94;;;16.44;100.00
55540;BME280;41384;51.418;7.286;2023-05-23T00:25:18;99915.38;;;16.42;100.00
55540;BME280;41384;51.418;7.286;2023-05-23T00:27:46;99927.66;;;16.43;100.00
55540;BME280;41384;51.418;7.286;2023-05-23T00:30:11;99921.66;;;16.53;100.00
55540;BME280;41384;51.418;7.286;2023-05-23T00:32:36;99917.28;;;16.29;100.00
55540;BME280;41384;51.418;7.286;2023-05-23T00:35:02;99919.56;;;16.38;100.00
55540;BME280;41384;51.418;7.286;2023-05-23T00:37:28;99913.84;;;16.29;100.00
55540;BME280;41384;51.418;7.286;2023-05-23T00:39:53;99923.31;;;16.08;100.00
55540;BME280;41384;51.418;7.286;2023-05-23T00:42:18;99937.13;;;16.04;100.00
55540;BME280;41384;51.418;7.286;2023-05-23T00:44:44;99934.00;;;16.25;100.00
55540;BME280;41384;51.418;7.286;2023-05-23T00:47:09;99944.22;;;15.99;100.00
55540;BME280;41384;51.418;7.286;2023-05-23T00:49:37;99943.34;;;16.10;100.00
55540;BME280;41384;51.418;7.286;2023-05-23T00:52:03;99942.63;;;16.15;100.00
55540;BME280;41384;51.418;7.286;2023-05-23T00:54:29;99945.84;;;16.00;100.00
55540;BME280;41384;51.418;7.286;2023-05-23T00:56:58;99943.44;;;16.15;100.00
55540;BME280;41384;51.418;7.286;2023-05-23T00:59:24;99954.47;;;16.07;100.00
55540;BME280;41384;51.418;7.286;2023-05-23T01:01:50;99955.22;;;16.19;100.00
55540;BME280;41384;51.418;7.286;2023-05-23T01:04:17;99960.38;;;16.09;100.00
55540;BME280;41384;51.418;7.286;2023-05-23T01:06:44;99958.03;;;16.13;100.00
55540;BME280;41384;51.418;7.286;2023-05-23T01:09:16;99955.63;;;16.11;100.00
55540;BME280;41384;51.418;7.286;2023-05-23T01:15:14;99939.22;;;16.02;100.00
55540;BME280;41384;51.418;7.286;2023-05-23T01:17:49;99954.56;;;16.12;100.00
55540;BME280;41384;51.418;7.286;2023-05-23T01:20:46;99952.00;;;16.17;100.00
55540;BME280;41384;51.418;7.286;2023-05-23T01:23:41;99960.59;;;16.08;100.00
55540;BME280;41384;51.418;7.286;2023-05-23T01:29:10;99952.22;;;16.16;100.00
55540;BME280;41384;51.418;7.286;2023-05-23T01:31:42;99942.78;;;16.25;100.00
55540;BME280;41384;51.418;7.286;2023-05-23T01:34:08;99946.75;;;16.23;100.00
55540;BME280;41384;51.418;7.286;2023-05-23T01:36:41;99950.00;;;16.25;100.00
55540;BME280;41384;51.418;7.286;2023-05-23T01:39:07;99958.84;;;16.13;100.00
55540;BME280;41384;51.418;7.286;2023-05-23T01:41:32;99952.53;;;16.02;100.00
55540;BME280;41384;51.418;7.286;2023-05-23T01:43:58;99954.72;;;16.05;100.00
55540;BME280;41384;51.418;7.286;2023-05-23T01:46:24;99951.50;;;16.21;100.00
55540;BME280;41384;51.418;7.286;2023-05-23T01:48:50;99947.63;;;16.28;100.00
55540;BME280;41384;51.418;7.286;2023-05-23T01:51:16;99955.63;;;16.28;100.00
55540;BME280;41384;51.418;7.286;2023-05-23T01:53:42;99951.25;;;16.22;100.00
55540;BME280;41384;51.418;7.286;2023-05-23T01:56:07;99952.31;;;16.21;100.00
55540;BME280;41384;51.418;7.286;2023-05-23T01:58:33;99952.63;;;16.08;100.00
55540;BME280;41384;51.418;7.286;2023-05-23T02:00:58;99953.00;;;15.99;100.00
55540;BME280;41384;51.418;7.286;2023-05-23T02:03:24;99954.22;;;16.09;100.00
55540;BME280;41384;51.418;7.286;2023-05-23T02:05:49;99959.72;;;16.19;100.00
55540;BME280;41384;51.418;7.286;2023-05-23T02:08:15;99962.13;;;16.03;100.00
55540;BME280;41384;51.418;7.286;2023-05-23T02:10:40;99963.84;;;16.10;100.00
55540;BME280;41384;51.418;7.286;2023-05-23T02:13:05;99961.81;;;16.17;100.00
55540;BME280;41384;51.418;7.286;2023-05-23T02:15:30;99963.44;;;16.18;100.00
55540;BME280;41384;51.418;7.286;2023-05-23T02:17:57;99962.31;;;16.14;100.00
55540;BME280;41384;51.418;7.286;2023-05-23T02:20:22;99957.94;;;16.08;100.00
55540;BME280;41384;51.418;7.286;2023-05-23T02:22:47;99964.41;;;16.12;100.00
55540;BME280;41384;51.418;7.286;2023-05-23T02:25:13;99956.72;;;15.98;100.00
55540;BME280;41384;51.418;7.286;2023-05-23T02:27:39;99963.91;;;15.98;100.00
55540;BME280;41384;51.418;7.286;2023-05-23T02:30:05;99959.47;;;16.03;100.00
55540;BME280;41384;51.418;7.286;2023-05-23T02:32:30;99962.03;;;15.86;100.00
55540;BME280;41384;51.418;7.286;2023-05-23T02:34:56;99959.53;;;15.92;100.00
55540;BME280;41384;51.418;7.286;2023-05-23T02:37:22;99961.09;;;16.04;100.00
55540;BME280;41384;51.418;7.286;2023-05-23T02:39:47;99964.66;;;16.10;100.00
55540;BME280;41384;51.418;7.286;2023-05-23T02:42:12;99968.84;;;16.06;100.00
55540;BME280;41384;51.418;7.286;2023-05-23T02:44:38;99971.69;;;16.16;100.00
55540;BME280;41384;51.418;7.286;2023-05-23T02:47:03;99977.31;;;16.03;100.00
55540;BME280;41384;51.418;7.286;2023-05-23T02:49:28;99975.03;;;15.95;100.00
55540;BME280;41384;51.418;7.286;2023-05-23T02:51:53;99971.50;;;16.06;100.00
55540;BME280;41384;51.418;7.286;2023-05-23T02:54:19;99983.63;;;15.73;100.00
55540;BME280;41384;51.418;7.286;2023-05-23T02:56:44;99973.97;;;15.96;100.00
55540;BME280;41384;51.418;7.286;2023-05-23T02:59:10;99977.63;;;16.07;100.00
55540;BME280;41384;51.418;7.286;2023-05-23T03:01:36;99969.53;;;16.01;100.00
55540;BME280;41384;51.418;7.286;2023-05-23T03:04:01;99970.03;;;15.86;100.00
55540;BME280;41384;51.418;7.286;2023-05-23T03:06:27;99973.97;;;15.96;100.00
55540;BME280;41384;51.418;7.286;2023-05-23T03:08:52;99975.78;;;16.07;100.00
55540;BME280;41384;51.418;7.286;2023-05-23T03:11:18;99976.75;;;16.01;100.00
55540;BME280;41384;51.418;7.286;2023-05-23T03:13:43;99979.06;;;15.97;100.00
55540;BME280;41384;51.418;7.286;2023-05-23T03:16:08;99981.88;;;15.79;100.00
55540;BME280;41384;51.418;7.286;2023-05-23T03:18:33;99981.50;;;15.87;100.00
55540;BME280;41384;51.418;7.286;2023-05-23T03:20:59;99977.69;;;15.83;100.00
55540;BME280;41384;51.418;7.286;2023-05-23T03:23:24;99976.19;;;15.87;100.00
55540;BME280;41384;51.418;7.286;2023-05-23T03:25:49;99982.66;;;15.91;100.00
55540;BME280;41384;51.418;7.286;2023-05-23T03:28:15;99973.63;;;15.80;100.00
55540;BME280;41384;51.418;7.286;2023-05-23T03:30:40;99983.78;;;15.66;100.00
55540;BME280;41384;51.418;7.286;2023-05-23T03:33:05;99978.97;;;15.80;100.00
55540;BME280;41384;51.418;7.286;2023-05-23T03:35:33;99987.41;;;15.77;100.00
55540;BME280;41384;51.418;7.286;2023-05-23T03:37:58;99989.97;;;15.72;100.00
55540;BME280;41384;51.418;7.286;2023-05-23T03:40:24;99993.47;;;15.72;100.00
55540;BME280;41384;51.418;7.286;2023-05-23T03:43:01;99985.66;;;15.30;100.00
55540;BME280;41384;51.418;7.286;2023-05-23T03:45:27;99993.66;;;15.30;100.00
55540;BME280;41384;51.418;7.286;2023-05-23T03:47:52;99997.22;;;15.48;100.00
55540;BME280;41384;51.418;7.286;2023-05-23T03:50:17;99997.34;;;15.53;100.00
55540;BME280;41384;51.418;7.286;2023-05-23T03:52:43;99993.75;;;15.59;100.00
55540;BME280;41384;51.418;7.286;2023-05-23T03:55:08;100002.19;;;15.44;100.00
55540;BME280;41384;51.418;7.286;2023-05-23T03:57:35;100005.91;;;15.43;100.00
55540;BME280;41384;51.418;7.286;2023-05-23T04:00:01;100016.91;;;15.46;100.00
55540;BME280;41384;51.418;7.286;2023-05-23T04:02:27;100019.31;;;15.48;100.00
55540;BME280;41384;51.418;7.286;2023-05-23T04:04:52;100029.00;;;15.42;100.00
55540;BME280;41384;51.418;7.286;2023-05-23T04:07:18;100019.88;;;15.50;100.00
55540;BME280;41384;51.418;7.286;2023-05-23T04:09:43;100022.22;;;15.46;100.00
55540;BME280;41384;51.418;7.286;2023-05-23T04:12:08;100029.25;;;15.41;100.00
55540;BME280;41384;51.418;7.286;2023-05-23T04:14:34;100030.78;;;15.37;100.00
55540;BME280;41384;51.418;7.286;2023-05-23T04:17:00;100033.75;;;15.52;100.00
55540;BME280;41384;51.418;7.286;2023-05-23T04:19:25;100032.72;;;15.53;100.00
55540;BME280;41384;51.418;7.286;2023-05-23T04:21:50;100025.78;;;15.52;100.00
55540;BME280;41384;51.418;7.286;2023-05-23T04:24:16;100025.03;;;15.69;100.00
55540;BME280;41384;51.418;7.286;2023-05-23T04:26:41;100031.97;;;15.70;100.00
55540;BME280;41384;51.418;7.286;2023-05-23T04:29:07;100039.66;;;15.66;100.00
55540;BME280;41384;51.418;7.286;2023-05-23T04:31:32;100038.59;;;15.67;100.00
55540;BME280;41384;51.418;7.286;2023-05-23T04:33:58;100045.66;;;15.73;100.00
55540;BME280;41384;51.418;7.286;2023-05-23T04:36:23;100039.13;;;15.81;100.00
55540;BME280;41384;51.418;7.286;2023-05-23T04:38:49;100045.75;;;15.79;100.00
55540;BME280;41384;51.418;7.286;2023-05-23T04:41:14;100035.78;;;15.74;100.00
55540;BME280;41384;51.418;7.286;2023-05-23T04:43:40;100034.28;;;15.78;100.00
55540;BME280;41384;51.418;7.286;2023-05-23T04:46:08;100044.69;;;15.80;100.00
55540;BME280;41384;51.418;7.286;2023-05-23T04:48:34;100045.91;;;15.60;100.00
55540;BME280;41384;51.418;7.286;2023-05-23T04:51:00;100037.75;;;15.79;100.00
55540;BME280;41384;51.418;7.286;2023-05-23T04:53:26;100041.28;;;15.55;100.00
55540;BME280;41384;51.418;7.286;2023-05-23T04:55:51;100051.59;;;15.52;100.00
55540;BME280;41384;51.418;7.286;2023-05-23T04:58:16;100059.09;;;15.55;100.00
55540;BME280;41384;51.418;7.286;2023-05-23T05:00:41;100052.72;;;15.44;100.00
55540;BME280;41384;51.418;7.286;2023-05-23T05:03:07;100046.84;;;15.54;100.00
55540;BME280;41384;51.418;7.286;2023-05-23T05:05:33;100050.97;;;15.73;100.00
55540;BME280;41384;51.418;7.286;2023-05-23T05:07:59;100055.50;;;15.61;100.00
55540;BME280;41384;51.418;7.286;2023-05-23T05:10:24;100060.66;;;15.80;100.00
55540;BME280;41384;51.418;7.286;2023-05-23T05:12:49;100054.31;;;15.81;100.00
55540;BME280;41384;51.418;7.286;2023-05-23T05:15:16;100057.28;;;15.84;100.00
55540;BME280;41384;51.418;7.286;2023-05-23T05:17:42;100056.84;;;15.75;100.00
55540;BME280;41384;51.418;7.286;2023-05-23T05:20:07;100060.78;;;15.85;100.00
55540;BME280;41384;51.418;7.286;2023-05-23T05:22:34;100056.28;;;15.61;100.00
55540;BME280;41384;51.418;7.286;2023-05-23T05:25:00;100058.41;;;15.48;100.00
55540;BME280;41384;51.418;7.286;2023-05-23T05:27:26;100064.06;;;15.51;100.00
55540;BME280;41384;51.418;7.286;2023-05-23T05:29:52;100064.75;;;15.58;100.00
55540;BME280;41384;51.418;7.286;2023-05-23T05:32:17;100065.69;;;15.64;100.00
55540;BME280;41384;51.418;7.286;2023-05-23T05:34:43;100066.81;;;15.68;100.00
55540;BME280;41384;51.418;7.286;2023-05-23T05:37:08;100067.53;;;15.52;100.00
55540;BME280;41384;51.418;7.286;2023-05-23T05:39:33;100076.31;;;15.52;100.00
55540;BME280;41384;51.418;7.286;2023-05-23T05:41:59;100079.44;;;15.61;100.00
55540;BME280;41384;51.418;7.286;2023-05-23T05:44:25;100089.50;;;15.59;100.00
55540;BME280;41384;51.418;7.286;2023-05-23T05:46:51;100086.75;;;15.54;100.00
55540;BME280;41384;51.418;7.286;2023-05-23T05:49:16;100092.28;;;15.52;100.00
55540;BME280;41384;51.418;7.286;2023-05-23T05:51:41;100097.72;;;15.57;100.00
55540;BME280;41384;51.418;7.286;2023-05-23T05:54:06;100092.06;;;15.54;100.00
55540;BME280;41384;51.418;7.286;2023-05-23T05:56:32;100088.13;;;15.56;100.00
55540;BME280;41384;51.418;7.286;2023-05-23T05:58:57;100093.91;;;15.53;100.00
55540;BME280;41384;51.418;7.286;2023-05-23T06:01:22;100097.25;;;15.37;100.00
55540;BME280;41384;51.418;7.286;2023-05-23T06:03:49;100105.94;;;15.44;100.00
55540;BME280;41384;51.418;7.286;2023-05-23T06:06:14;100101.28;;;15.39;100.00
55540;BME280;41384;51.418;7.286;2023-05-23T06:08:40;100097.84;;;15.51;100.00
55540;BME280;41384;51.418;7.286;2023-05-23T06:11:06;100096.78;;;15.40;100.00
55540;BME280;41384;51.418;7.286;2023-05-23T06:13:31;100094.00;;;15.23;100.00
55540;BME280;41384;51.418;7.286;2023-05-23T06:15:56;100102.91;;;15.28;100.00
55540;BME280;41384;51.418;7.286;2023-05-23T06:18:22;100094.38;;;15.26;100.00
55540;BME280;41384;51.418;7.286;2023-05-23T06:20:47;100097.59;;;15.28;100.00
55540;BME280;41384;51.418;7.286;2023-05-23T06:23:13;100113.09;;;15.31;100.00
55540;BME280;41384;51.418;7.286;2023-05-23T06:25:38;100104.63;;;15.23;100.00
55540;BME280;41384;51.418;7.286;2023-05-23T06:28:03;100120.72;;;15.28;100.00
55540;BME280;41384;51.418;7.286;2023-05-23T06:30:29;100111.22;;;15.32;100.00
55540;BME280;41384;51.418;7.286;2023-05-23T06:32:54;100108.47;;;15.27;100.00
55540;BME280;41384;51.418;7.286;2023-05-23T06:35:19;100106.13;;;15.18;100.00
55540;BME280;41384;51.418;7.286;2023-05-23T06:37:45;100115.16;;;15.17;100.00
55540;BME280;41384;51.418;7.286;2023-05-23T06:40:11;100114.69;;;15.21;100.00
55540;BME280;41384;51.418;7.286;2023-05-23T06:42:37;100114.25;;;15.12;100.00
55540;BME280;41384;51.418;7.286;2023-05-23T06:45:03;100117.13;;;15.22;100.00
55540;BME280;41384;51.418;7.286;2023-05-23T06:47:28;100124.66;;;15.25;100.00
55540;BME280;41384;51.418;7.286;2023-05-23T06:49:53;100118.16;;;15.33;100.00
55540;BME280;41384;51.418;7.286;2023-05-23T06:52:18;100126.25;;;15.14;100.00
55540;BME280;41384;51.418;7.286;2023-05-23T06:54:44;100123.97;;;15.18;100.00
55540;BME280;41384;51.418;7.286;2023-05-23T06:57:09;100129.25;;;15.06;100.00
55540;BME280;41384;51.418;7.286;2023-05-23T06:59:34;100143.13;;;15.08;100.00
55540;BME280;41384;51.418;7.286;2023-05-23T07:02:00;100151.91;;;15.21;100.00
55540;BME280;41384;51.418;7.286;2023-05-23T07:04:25;100152.84;;;15.14;100.00
55540;BME280;41384;51.418;7.286;2023-05-23T07:06:52;100153.66;;;15.15;100.00
55540;BME280;41384;51.418;7.286;2023-05-23T07:09:17;100149.47;;;15.07;100.00
55540;BME280;41384;51.418;7.286;2023-05-23T07:11:42;100155.75;;;15.13;100.00
55540;BME280;41384;51.418;7.286;2023-05-23T07:14:08;100160.22;;;15.12;100.00
55540;BME280;41384;51.418;7.286;2023-05-23T07:16:33;100158.72;;;15.05;100.00
55540;BME280;41384;51.418;7.286;2023-05-23T07:19:00;100159.56;;;15.17;100.00
55540;BME280;41384;51.418;7.286;2023-05-23T07:21:25;100165.78;;;15.23;100.00
55540;BME280;41384;51.418;7.286;2023-05-23T07:23:50;100165.53;;;15.12;100.00
55540;BME280;41384;51.418;7.286;2023-05-23T07:26:15;100165.50;;;14.88;100.00
55540;BME280;41384;51.418;7.286;2023-05-23T07:28:41;100161.69;;;14.96;100.00
55540;BME280;41384;51.418;7.286;2023-05-23T07:31:06;100180.19;;;15.03;100.00
55540;BME280;41384;51.418;7.286;2023-05-23T07:33:33;100187.91;;;14.93;100.00
55540;BME280;41384;51.418;7.286;2023-05-23T07:35:58;100182.16;;;14.96;100.00
55540;BME280;41384;51.418;7.286;2023-05-23T07:38:25;100190.16;;;15.08;100.00
55540;BME280;41384;51.418;7.286;2023-05-23T07:40:50;100189.59;;;15.17;100.00
55540;BME280;41384;51.418;7.286;2023-05-23T07:43:16;100192.72;;;15.14;100.00
55540;BME280;41384;51.418;7.286;2023-05-23T07:45:41;100190.13;;;14.96;100.00
55540;BME280;41384;51.418;7.286;2023-05-23T07:48:07;100194.47;;;14.90;100.00
55540;BME280;41384;51.418;7.286;2023-05-23T07:50:33;100184.66;;;14.91;100.00
55540;BME280;41384;51.418;7.286;2023-05-23T07:52:58;100199.63;;;15.03;100.00
55540;BME280;41384;51.418;7.286;2023-05-23T07:55:23;100204.19;;;15.15;100.00
55540;BME280;41384;51.418;7.286;2023-05-23T07:57:48;100202.69;;;15.19;99.65
55540;BME280;41384;51.418;7.286;2023-05-23T08:00:14;100213.44;;;15.36;98.63
55540;BME280;41384;51.418;7.286;2023-05-23T08:02:39;100201.00;;;15.06;99.68
55540;BME280;41384;51.418;7.286;2023-05-23T08:05:05;100203.84;;;15.23;98.03
55540;BME280;41384;51.418;7.286;2023-05-23T08:07:31;100206.00;;;15.14;98.27
55540;BME280;41384;51.418;7.286;2023-05-23T08:09:56;100203.34;;;15.14;98.94
55540;BME280;41384;51.418;7.286;2023-05-23T08:12:21;100204.91;;;15.34;96.08
55540;BME280;41384;51.418;7.286;2023-05-23T08:14:46;100203.59;;;15.25;98.64
55540;BME280;41384;51.418;7.286;2023-05-23T08:17:12;100206.25;;;15.25;96.90
55540;BME280;41384;51.418;7.286;2023-05-23T08:19:37;100209.19;;;15.35;96.70
55540;BME280;41384;51.418;7.286;2023-05-23T08:22:03;100214.50;;;15.35;96.22
55540;BME280;41384;51.418;7.286;2023-05-23T08:24:29;100222.00;;;15.26;96.61
55540;BME280;41384;51.418;7.286;2023-05-23T08:26:54;100227.66;;;15.18;96.99
55540;BME280;41384;51.418;7.286;2023-05-23T08:29:19;100226.88;;;15.29;98.36
55540;BME280;41384;51.418;7.286;2023-05-23T08:31:46;100226.16;;;15.34;98.59
55540;BME280;41384;51.418;7.286;2023-05-23T08:34:11;100231.94;;;15.31;96.70
55540;BME280;41384;51.418;7.286;2023-05-23T08:36:38;100228.50;;;15.30;96.30
55540;BME280;41384;51.418;7.286;2023-05-23T08:39:03;100227.47;;;15.43;95.46
55540;BME280;41384;51.418;7.286;2023-05-23T08:41:29;100221.72;;;15.46;96.06
55540;BME280;41384;51.418;7.286;2023-05-23T08:43:56;100230.25;;;15.37;96.04
55540;BME280;41384;51.418;7.286;2023-05-23T08:46:22;100228.88;;;15.46;96.25
55540;BME280;41384;51.418;7.286;2023-05-23T08:48:51;100235.81;;;15.47;95.42
55540;BME280;41384;51.418;7.286;2023-05-23T08:51:18;100228.69;;;15.29;95.34
55540;BME280;41384;51.418;7.286;2023-05-23T08:53:47;100245.44;;;15.17;96.46
55540;BME280;41384;51.418;7.286;2023-05-23T08:56:13;100251.25;;;14.96;96.66
55540;BME280;41384;51.418;7.286;2023-05-23T08:58:40;100238.41;;;14.93;97.45
55540;BME280;41384;51.418;7.286;2023-05-23T09:01:07;100264.75;;;15.25;97.42
55540;BME280;41384;51.418;7.286;2023-05-23T09:03:34;100256.44;;;15.21;99.16
55540;BME280;41384;51.418;7.286;2023-05-23T09:06:01;100269.22;;;15.12;96.90
55540;BME280;41384;51.418;7.286;2023-05-23T09:08:26;100262.97;;;15.07;97.73
55540;BME280;41384;51.418;7.286;2023-05-23T09:10:53;100278.56;;;15.03;98.79
55540;BME280;41384;51.418;7.286;2023-05-23T09:13:18;100268.50;;;15.05;98.88
55540;BME280;41384;51.418;7.286;2023-05-23T09:16:03;100274.41;;;15.07;97.21
55540;BME280;41384;51.418;7.286;2023-05-23T09:18:33;100269.28;;;14.94;98.48
55540;BME280;41384;51.418;7.286;2023-05-23T09:20:59;100269.94;;;14.70;99.77
55540;BME280;41384;51.418;7.286;2023-05-23T09:23:24;100271.13;;;14.74;99.13
55540;BME280;41384;51.418;7.286;2023-05-23T09:25:50;100277.75;;;14.84;97.76
55540;BME280;41384;51.418;7.286;2023-05-23T09:28:15;100274.03;;;14.73;96.78
55540;BME280;41384;51.418;7.286;2023-05-23T09:30:40;100283.75;;;14.79;97.20
55540;BME280;41384;51.418;7.286;2023-05-23T09:33:06;100290.50;;;14.56;98.19
55540;BME280;41384;51.418;7.286;2023-05-23T09:35:32;100293.78;;;14.58;97.42
55540;BME280;41384;51.418;7.286;2023-05-23T09:37:57;100293.59;;;14.53;98.27
55540;BME280;41384;51.418;7.286;2023-05-23T09:40:30;100298.97;;;14.72;97.06
55540;BME280;41384;51.418;7.286;2023-05-23T09:43:04;100290.59;;;14.68;96.97
55540;BME280;41384;51.418;7.286;2023-05-23T09:45:32;100285.09;;;14.70;96.34
55540;BME280;41384;51.418;7.286;2023-05-23T09:47:57;100298.66;;;14.80;95.18
55540;BME280;41384;51.418;7.286;2023-05-23T09:50:23;100294.53;;;14.84;93.97
55540;BME280;41384;51.418;7.286;2023-05-23T09:52:49;100295.84;;;14.94;93.31
55540;BME280;41384;51.418;7.286;2023-05-23T09:55:15;100299.75;;;15.10;91.81
55540;BME280;41384;51.418;7.286;2023-05-23T09:57:42;100302.22;;;15.23;89.39
55540;BME280;41384;51.418;7.286;2023-05-23T10:00:10;100308.53;;;15.10;89.26
55540;BME280;41384;51.418;7.286;2023-05-23T10:03:11;100310.56;;;15.27;87.81
55540;BME280;41384;51.418;7.286;2023-05-23T10:05:40;100309.25;;;15.17;87.99
55540;BME280;41384;51.418;7.286;2023-05-23T10:08:33;100307.41;;;15.18;87.76
55540;BME280;41384;51.418;7.286;2023-05-23T10:11:24;100299.53;;;14.93;87.57
55540;BME280;41384;51.418;7.286;2023-05-23T10:13:48;100314.28;;;15.07;87.10
55540;BME280;41384;51.418;7.286;2023-05-23T10:16:20;100301.63;;;14.91;88.07
55540;BME280;41384;51.418;7.286;2023-05-23T10:21:43;100315.41;;;14.81;87.78
55540;BME280;41384;51.418;7.286;2023-05-23T10:24:10;100310.59;;;15.08;86.25
55540;BME280;41384;51.418;7.286;2023-05-23T10:26:36;100307.81;;;15.03;87.11
55540;BME280;41384;51.418;7.286;2023-05-23T10:29:02;100326.47;;;14.96;87.41
55540;BME280;41384;51.418;7.286;2023-05-23T10:31:29;100320.34;;;14.96;88.43
55540;BME280;41384;51.418;7.286;2023-05-23T10:34:20;100321.91;;;14.85;88.99
55540;BME280;41384;51.418;7.286;2023-05-23T10:37:02;100328.59;;;14.69;88.59
55540;BME280;41384;51.418;7.286;2023-05-23T10:39:52;100323.16;;;14.64;90.21
55540;BME280;41384;51.418;7.286;2023-05-23T10:45:21;100333.09;;;14.68;90.16
55540;BME280;41384;51.418;7.286;2023-05-23T10:47:49;100340.97;;;14.56;90.66
55540;BME280;41384;51.418;7.286;2023-05-23T10:50:35;100349.81;;;14.50;90.55
55540;BME280;41384;51.418;7.286;2023-05-23T10:53:03;100350.06;;;14.49;89.39
55540;BME280;41384;51.418;7.286;2023-05-23T10:55:33;100354.06;;;14.33;89.52
55540;BME280;41384;51.418;7.286;2023-05-23T10:58:15;100363.50;;;14.28;90.10
55540;BME280;41384;51.418;7.286;2023-05-23T11:00:50;100363.88;;;14.32;87.09
55540;BME280;41384;51.418;7.286;2023-05-23T11:03:16;100376.59;;;14.49;85.68
55540;BME280;41384;51.418;7.286;2023-05-23T11:05:47;100366.88;;;14.61;85.16
55540;BME280;41384;51.418;7.286;2023-05-23T11:08:18;100369.16;;;15.01;83.76
55540;BME280;41384;51.418;7.286;2023-05-23T11:11:00;100370.97;;;15.38;81.76
55540;BME280;41384;51.418;7.286;2023-05-23T11:16:39;100370.63;;;15.35;79.60
55540;BME280;41384;51.418;7.286;2023-05-23T11:21:48;100363.44;;;15.35;76.61
55540;BME280;41384;51.418;7.286;2023-05-23T11:24:13;100364.34;;;15.10;76.22
55540;BME280;41384;51.418;7.286;2023-05-23T11:26:39;100366.81;;;15.12;75.06
55540;BME280;41384;51.418;7.286;2023-05-23T11:29:08;100368.56;;;15.18;75.94
55540;BME280;41384;51.418;7.286;2023-05-23T11:31:39;100366.81;;;15.12;74.90
55540;BME280;41384;51.418;7.286;2023-05-23T11:34:05;100361.09;;;15.08;76.21
55540;BME280;41384;51.418;7.286;2023-05-23T11:36:31;100360.75;;;15.05;76.25
55540;BME280;41384;51.418;7.286;2023-05-23T11:39:00;100362.59;;;15.04;76.67
55540;BME280;41384;51.418;7.286;2023-05-23T11:41:27;100359.41;;;15.14;75.44
55540;BME280;41384;51.418;7.286;2023-05-23T11:43:52;100371.06;;;14.94;75.48
55540;BME280;41384;51.418;7.286;2023-05-23T11:46:18;100368.44;;;15.13;74.69
55540;BME280;41384;51.418;7.286;2023-05-23T11:48:47;100371.97;;;15.25;74.96
55540;BME280;41384;51.418;7.286;2023-05-23T11:51:13;100370.19;;;15.19;74.23
55540;BME280;41384;51.418;7.286;2023-05-23T11:53:40;100374.56;;;14.95;74.37
55540;BME280;41384;51.418;7.286;2023-05-23T11:56:05;100380.00;;;14.81;75.91
55540;BME280;41384;51.418;7.286;2023-05-23T11:58:35;100384.00;;;14.91;75.78
55540;BME280;41384;51.418;7.286;2023-05-23T12:01:11;100381.44;;;15.02;75.42
55540;BME280;41384;51.418;7.286;2023-05-23T12:03:48;100379.56;;;15.22;74.15
55540;BME280;41384;51.418;7.286;2023-05-23T12:06:15;100380.88;;;15.31;72.89
55540;BME280;41384;51.418;7.286;2023-05-23T12:08:40;100380.72;;;15.26;71.35
55540;BME280;41384;51.418;7.286;2023-05-23T12:11:06;100392.25;;;15.38;70.61
55540;BME280;41384;51.418;7.286;2023-05-23T12:13:31;100380.41;;;15.53;70.14
55540;BME280;41384;51.418;7.286;2023-05-23T12:15:59;100395.03;;;15.43;70.10
55540;BME280;41384;51.418;7.286;2023-05-23T12:18:29;100389.19;;;15.53;69.83
55540;BME280;41384;51.418;7.286;2023-05-23T12:20:59;100395.16;;;15.67;69.83
55540;BME280;41384;51.418;7.286;2023-05-23T12:23:25;100396.88;;;15.61;69.42
55540;BME280;41384;51.418;7.286;2023-05-23T12:25:51;100389.88;;;15.49;70.19
55540;BME280;41384;51.418;7.286;2023-05-23T12:28:17;100387.97;;;15.68;69.16
55540;BME280;41384;51.418;7.286;2023-05-23T12:30:43;100392.75;;;15.78;68.52
55540;BME280;41384;51.418;7.286;2023-05-23T12:33:09;100395.50;;;15.71;68.89
55540;BME280;41384;51.418;7.286;2023-05-23T12:35:34;100395.72;;;15.88;68.89
55540;BME280;41384;51.418;7.286;2023-05-23T12:38:00;100395.41;;;15.96;69.04
55540;BME280;41384;51.418;7.286;2023-05-23T12:40:26;100394.03;;;16.05;66.60
55540;BME280;41384;51.418;7.286;2023-05-23T12:42:53;100388.16;;;16.27;66.51
55540;BME280;41384;51.418;7.286;2023-05-23T12:45:20;100386.31;;;16.28;66.34
55540;BME280;41384;51.418;7.286;2023-05-23T12:47:46;100395.19;;;16.10;64.75
55540;BME280;41384;51.418;7.286;2023-05-23T12:50:11;100390.66;;;15.98;62.29
55540;BME280;41384;51.418;7.286;2023-05-23T12:52:37;100392.84;;;16.01;60.81
55540;BME280;41384;51.418;7.286;2023-05-23T12:55:04;100396.03;;;16.34;60.09
55540;BME280;41384;51.418;7.286;2023-05-23T12:57:30;100381.94;;;16.57;59.00
55540;BME280;41384;51.418;7.286;2023-05-23T12:59:56;100394.22;;;16.58;59.03
55540;BME280;41384;51.418;7.286;2023-05-23T13:02:21;100387.59;;;16.61;59.77
55540;BME280;41384;51.418;7.286;2023-05-23T13:04:47;100383.88;;;16.86;59.75